»·PEaware :: GTH1 KLAS-KPSP

GTH1 :: KLAS-KPSP

FLIGHT INFORMATION

Flight Status: Arrived
Operator: Unknown
More flights by this operator :: More flights under this callsign
Pilot: Tanner C. (11250)
Aircraft: BOMBARDIER BD-100 CHALLENGER 300
(CL30)
More flights by this aircraft type
Origin: KLAS McCarran Intl
United States
Destination: KPSP Palm Springs Intl
United States
More flights between these airports :: More routes between these airports
Route: +LAS GFS SBONO1
File this flight plan on PilotEdge
Remarks:
Altitude:
(Current/Filed)
28,000ft
Speed:
(Current/Filed)
300kts
Departed: 10-Jan-18 05:38 PM
Arrived: 10-Jan-18 06:11 PM
Distance/Time
Traveled:
151nm/0:32
Distance/Time
To Go:
Arrived

Flight Plot

Page will automatically refresh every two minutes.

Flight plan parsing failed; only flown route is shown


Map Options




Map Legend


Flown Route
Filed Route
Departure Airport
Arrival Airport
Navaid (VOR, NDB)
Fix

Horizontal Profiles

Position Reports

Time Latitude Longitude Heading Altitude Ground
Speed
10-Jan-18 17:31 36.100133 -115.159610 207 2118ft 0kts
10-Jan-18 17:32 36.100133 -115.159610 207 2118ft 0kts
10-Jan-18 17:33 36.100133 -115.159610 207 2118ft 0kts
10-Jan-18 17:34 36.100133 -115.159610 207 2118ft 0kts
10-Jan-18 17:35 36.100133 -115.159610 207 2118ft 0kts
10-Jan-18 17:36 36.100133 -115.159610 207 2118ft 0kts
10-Jan-18 17:37 36.100133 -115.159610 207 2118ft 0kts
10-Jan-18 17:38 36.100133 -115.159610 207 2118ft 0kts
10-Jan-18 17:39 36.100133 -115.159610 207 2118ft 0kts
10-Jan-18 17:40 36.100133 -115.159610 207 2118ft 0kts
10-Jan-18 17:41 36.100133 -115.159610 207 2118ft 0kts
10-Jan-18 17:42 36.100133 -115.159610 207 2118ft 0kts
10-Jan-18 17:43 36.099789 -115.157189 119 2118ft 3kts
10-Jan-18 17:44 36.095951 -115.158575 203 2118ft 99kts
10-Jan-18 17:45 36.044359 -115.173672 186 5310ft 284kts
10-Jan-18 17:46 35.974895 -115.180410 187 12174ft 244kts
10-Jan-18 17:47 35.893586 -115.181779 191 15826ft 356kts
10-Jan-18 17:48 35.785148 -115.194995 191 16011ft 419kts
10-Jan-18 17:49 35.670709 -115.209804 191 16007ft 415kts
10-Jan-18 17:50 35.566607 -115.222758 191 16007ft 411kts
10-Jan-18 17:51 35.451622 -115.215844 179 17370ft 430kts
10-Jan-18 17:52 35.330889 -115.200819 180 21318ft 452kts
10-Jan-18 17:53 35.203494 -115.185275 180 25176ft 481kts
10-Jan-18 17:54 35.073218 -115.206310 205 27997ft 490kts
10-Jan-18 17:55 34.944186 -115.259816 207 28026ft 495kts
10-Jan-18 17:56 34.820491 -115.313669 207 28013ft 494kts
10-Jan-18 17:57 34.692532 -115.369692 208 27607ft 491kts
10-Jan-18 17:58 34.587058 -115.415800 207 26758ft 485kts
10-Jan-18 17:59 34.442589 -115.478763 208 25132ft 467kts
10-Jan-18 18:00 34.327258 -115.536844 227 22811ft 429kts
10-Jan-18 18:01 34.253628 -115.613521 230 20877ft 415kts
10-Jan-18 18:02 34.164854 -115.711394 230 17938ft 400kts
10-Jan-18 18:03 34.095466 -115.782148 221 15676ft 400kts
10-Jan-18 18:04 34.005392 -115.856157 220 12875ft 376kts
10-Jan-18 18:05 33.918825 -115.935385 255 10048ft 279kts
10-Jan-18 18:06 33.905487 -116.007217 268 10054ft 268kts
10-Jan-18 18:07 33.858337 -116.072514 220 8711ft 297kts
10-Jan-18 18:08 33.798602 -116.134170 239 7281ft 277kts
10-Jan-18 18:09 33.759805 -116.205214 242 6158ft 239kts
10-Jan-18 18:10 33.725828 -116.269556 242 4943ft 222kts
10-Jan-18 18:11 33.693900 -116.329926 241 3972ft 216kts
10-Jan-18 18:12 33.707183 -116.382460 316 3418ft 182kts
10-Jan-18 18:13 33.741695 -116.419414 314 2660ft 158kts
10-Jan-18 18:14 33.771250 -116.453960 317 1903ft 149kts
10-Jan-18 18:15 33.801157 -116.482308 322 1020ft 131kts
10-Jan-18 18:16 33.828408 -116.506485 323 484ft 82kts
10-Jan-18 18:17 33.833135 -116.510889 298 484ft 20kts
10-Jan-18 18:18 33.829993 -116.510075 144 483ft 23kts
10-Jan-18 18:19 33.826423 -116.506816 161 484ft 15kts
10-Jan-18 18:20 33.825684 -116.509386 266 484ft 0kts

Navigation Log

Ident Type
Flight plan parsing failed, navigation log unavailable